createdAt,value
2019-05-02T00:02:01.159Z,37.49
2019-05-02T00:04:28.013Z,37.52
2019-05-02T00:06:54.921Z,37.58
2019-05-02T00:09:21.876Z,37.64
2019-05-02T00:11:58.491Z,37.66
2019-05-02T00:14:17.636Z,37.69
2019-05-02T00:16:45.245Z,37.88
2019-05-02T00:19:14.099Z,37.97
2019-05-02T00:21:43.055Z,38.00
2019-05-02T00:24:10.523Z,38.02
2019-05-02T00:26:38.529Z,38.03
2019-05-02T00:29:05.399Z,38.12
2019-05-02T00:31:32.670Z,38.17
2019-05-02T00:33:59.529Z,38.25
2019-05-02T00:36:26.800Z,38.29
2019-05-02T00:38:54.667Z,38.35
2019-05-02T00:41:21.608Z,38.42
2019-05-02T00:43:48.849Z,38.39
2019-05-02T00:46:15.718Z,38.39
2019-05-02T00:48:43.861Z,38.44
2019-05-02T00:51:10.725Z,38.44
2019-05-02T00:53:37.954Z,38.51
2019-05-02T01:02:00.139Z,39.00
2019-05-02T01:04:27.698Z,39.41
2019-05-02T01:06:55.856Z,39.49
2019-05-02T01:09:22.729Z,39.45
2019-05-02T01:11:49.589Z,39.39
2019-05-02T01:14:17.440Z,39.33
2019-05-02T01:16:44.676Z,39.31
2019-05-02T01:19:15.766Z,39.25
2019-05-02T01:21:40.497Z,39.18
2019-05-02T01:24:07.380Z,39.26
2019-05-02T01:26:34.504Z,39.27
2019-05-02T01:29:02.579Z,39.35
2019-05-02T01:31:29.524Z,39.42
2019-05-02T01:33:56.460Z,39.51
2019-05-02T01:36:23.420Z,39.71
2019-05-02T01:38:50.281Z,39.76
2019-05-02T01:41:17.518Z,39.80
2019-05-02T01:43:44.465Z,39.82
2019-05-02T01:46:11.321Z,39.92
2019-05-02T01:48:40.215Z,40.02
2019-05-02T01:51:09.933Z,40.01
2019-05-02T01:53:35.835Z,40.02
2019-05-02T01:56:03.939Z,39.99
2019-05-02T01:58:30.884Z,39.98
2019-05-02T02:00:58.092Z,40.02
2019-05-02T02:03:25.133Z,40.07
2019-05-02T02:05:53.340Z,40.20
2019-05-02T02:08:20.292Z,40.30
2019-05-02T02:10:50.844Z,40.40
2019-05-02T02:13:16.213Z,40.37
2019-05-02T02:15:43.137Z,40.32
2019-05-02T02:18:09.998Z,40.36
2019-05-02T02:20:36.885Z,40.34
2019-05-02T02:23:03.831Z,40.24
2019-05-02T02:25:32.291Z,40.23
2019-05-02T02:27:59.991Z,40.18
2019-05-02T02:30:27.931Z,40.16
2019-05-02T02:33:00.825Z,40.17
2019-05-02T02:35:23.758Z,40.09
2019-05-02T02:37:53.051Z,40.06
2019-05-02T02:40:19.241Z,40.03
2019-05-02T02:42:46.104Z,39.98
2019-05-02T02:45:18.455Z,39.88
2019-05-02T02:47:41.672Z,39.77
2019-05-02T02:50:08.676Z,39.70
2019-05-02T02:52:37.778Z,39.69
2019-05-02T02:55:04.179Z,39.68
2019-05-02T02:57:31.133Z,39.63
2019-05-02T03:00:06.654Z,39.62
2019-05-02T03:02:26.915Z,39.58
2019-05-02T03:04:53.842Z,39.59
2019-05-02T03:07:25.771Z,39.59
2019-05-02T03:09:49.265Z,39.56
2019-05-02T03:12:16.618Z,39.53
2019-05-02T03:14:47.190Z,39.51
2019-05-02T03:17:12.168Z,39.53
2019-05-02T03:19:39.057Z,39.51
2019-05-02T03:22:05.973Z,39.58
2019-05-02T03:24:36.514Z,39.65
2019-05-02T03:27:01.514Z,39.69
2019-05-02T03:29:39.220Z,39.81
2019-05-02T03:32:14.762Z,39.99
2019-05-02T03:34:44.974Z,40.07
2019-05-02T03:36:54.621Z,40.05
2019-05-02T03:39:21.623Z,40.08
2019-05-02T03:41:55.089Z,40.14
2019-05-02T03:44:24.698Z,40.11
2019-05-02T03:46:46.169Z,40.26
2019-05-02T03:49:13.249Z,40.57
2019-05-02T03:51:40.288Z,40.68
2019-05-02T03:54:10.191Z,40.63
2019-05-02T03:56:35.766Z,40.63
2019-05-02T03:59:02.711Z,40.65
2019-05-02T04:01:34.844Z,40.67
2019-05-02T04:03:58.221Z,40.73
2019-05-02T04:06:25.185Z,40.79
2019-05-02T04:08:59.185Z,40.71
2019-05-02T04:11:21.039Z,40.65
2019-05-02T04:13:48.273Z,40.55
2019-05-02T04:16:17.427Z,40.48
2019-05-02T04:18:55.003Z,40.38
2019-05-02T04:21:13.374Z,40.34
2019-05-02T04:23:40.363Z,40.28
2019-05-02T04:26:12.723Z,40.19
2019-05-02T04:28:35.916Z,40.11
2019-05-02T04:31:02.857Z,40.13
2019-05-02T04:33:34.628Z,40.09
2019-05-02T04:35:59.528Z,40.04
2019-05-02T04:38:41.723Z,40.01
2019-05-02T04:40:55.357Z,40.00
2019-05-02T04:43:22.268Z,39.95
2019-05-02T04:45:56.119Z,39.87
2019-05-02T04:48:18.476Z,39.76
2019-05-02T04:50:48.365Z,39.73
2019-05-02T04:53:14.095Z,39.63
2019-05-02T04:55:41.078Z,39.67
2019-05-02T04:58:08.500Z,39.71
2019-05-02T05:00:38.967Z,39.65
2019-05-02T05:03:07.223Z,39.63
2019-05-02T05:05:32.810Z,39.62
2019-05-02T05:07:59.753Z,39.54
2019-05-02T05:10:27.666Z,39.50
2019-05-02T05:12:54.774Z,39.46
2019-05-02T05:15:35.962Z,39.50
2019-05-02T05:17:50.381Z,39.43
2019-05-02T05:20:18.318Z,39.38
2019-05-02T05:22:45.972Z,39.38
2019-05-02T05:25:17.732Z,39.31
2019-05-02T05:27:42.578Z,39.24
2019-05-02T05:30:15.517Z,39.05
2019-05-02T05:32:39.007Z,38.88
2019-05-02T05:35:08.968Z,38.61
2019-05-02T05:37:34.476Z,38.27
2019-05-02T05:40:01.809Z,37.93
2019-05-02T05:42:32.694Z,37.62
2019-05-02T05:44:58.352Z,37.38
2019-05-02T05:47:27.312Z,37.03
2019-05-02T05:49:57.693Z,36.81
2019-05-02T05:52:22.768Z,36.87
2019-05-02T05:54:49.740Z,37.01
2019-05-02T05:57:20.838Z,36.94
2019-05-02T05:59:45.568Z,36.69
2019-05-02T06:02:14.597Z,36.57
2019-05-02T06:04:41.027Z,36.51
2019-05-02T06:07:07.966Z,36.20
2019-05-02T06:09:34.830Z,35.93
2019-05-02T06:12:03.044Z,35.49
2019-05-02T06:14:29.959Z,35.22
2019-05-02T06:16:56.872Z,34.90
2019-05-02T06:19:23.750Z,34.50
2019-05-02T06:21:50.942Z,34.31
2019-05-02T06:24:17.900Z,34.15
2019-05-02T06:26:49.587Z,33.68
2019-05-02T06:29:18.796Z,33.50
2019-05-02T06:31:43.197Z,33.04
2019-05-02T06:34:10.900Z,32.66
2019-05-02T06:36:38.131Z,32.43
2019-05-02T06:39:05.384Z,32.28
2019-05-02T06:41:32.521Z,32.25
2019-05-02T06:43:59.390Z,31.89
2019-05-02T06:46:27.482Z,31.84
2019-05-02T06:48:54.831Z,31.80
2019-05-02T06:51:21.703Z,32.13
2019-05-02T06:53:48.965Z,31.98
2019-05-02T06:56:16.008Z,31.43
2019-05-02T06:58:45.976Z,31.18
2019-05-02T07:01:16.207Z,31.07
2019-05-02T07:03:45.898Z,31.77
2019-05-02T07:06:10.126Z,32.14
2019-05-02T07:08:37.080Z,32.22
2019-05-02T07:11:04.030Z,31.37
2019-05-02T07:13:30.938Z,31.50
2019-05-02T07:15:57.860Z,31.93
2019-05-02T07:18:24.816Z,32.28
2019-05-02T07:20:52.069Z,31.72
2019-05-02T07:23:18.925Z,31.51
2019-05-02T07:25:45.813Z,31.33
2019-05-02T07:28:12.741Z,31.38
2019-05-02T07:30:39.632Z,30.79
2019-05-02T07:33:06.525Z,30.04
2019-05-02T07:35:33.466Z,30.37
2019-05-02T07:38:00.333Z,30.36
2019-05-02T07:40:27.238Z,30.30
2019-05-02T07:42:54.194Z,30.15
2019-05-02T07:45:21.147Z,30.43
2019-05-02T07:47:48.166Z,31.13
2019-05-02T07:50:15.106Z,31.41
2019-05-02T07:52:42.283Z,31.19
2019-05-02T07:55:10.191Z,30.17
2019-05-02T07:57:37.259Z,29.39
2019-05-02T08:00:04.539Z,28.79
2019-05-02T08:02:33.366Z,29.22
2019-05-02T08:05:00.591Z,28.70
2019-05-02T08:07:34.143Z,28.51
2019-05-02T08:09:56.114Z,29.24
2019-05-02T08:12:23.381Z,29.58
2019-05-02T08:14:50.239Z,30.18
2019-05-02T08:17:19.229Z,30.82
2019-05-02T08:19:45.702Z,30.96
2019-05-02T08:22:14.527Z,30.46
2019-05-02T08:24:41.617Z,30.89
2019-05-02T08:27:08.565Z,31.07
2019-05-02T08:29:35.513Z,30.76
2019-05-02T08:32:02.811Z,30.73
2019-05-02T08:34:29.719Z,30.62
2019-05-02T08:36:58.825Z,30.83
2019-05-02T08:39:33.039Z,31.20
2019-05-02T08:41:56.383Z,31.47
2019-05-02T08:44:22.854Z,31.65
2019-05-02T08:46:51.533Z,31.61
2019-05-02T08:49:20.081Z,31.40
2019-05-02T08:51:47.099Z,31.27
2019-05-02T08:54:13.960Z,31.06
2019-05-02T08:56:40.924Z,31.09
2019-05-02T08:59:07.870Z,31.28
2019-05-02T09:01:35.655Z,31.39
2019-05-02T09:04:02.838Z,31.53
2019-05-02T09:06:29.791Z,31.55
2019-05-02T09:08:57.036Z,31.55
2019-05-02T09:11:23.983Z,31.37
2019-05-02T09:13:52.650Z,31.44
2019-05-02T09:16:23.757Z,31.50
2019-05-02T09:18:53.358Z,31.68
2019-05-02T09:21:17.069Z,31.63
2019-05-02T09:23:44.075Z,31.62
2019-05-02T09:26:11.923Z,31.77
2019-05-02T09:28:38.937Z,31.81
2019-05-02T09:31:06.744Z,31.84
2019-05-02T09:33:36.911Z,31.82
2019-05-02T09:36:02.698Z,31.74
2019-05-02T09:38:29.620Z,31.80
2019-05-02T09:40:56.581Z,31.95
2019-05-02T09:43:23.531Z,31.98
2019-05-02T09:45:52.004Z,32.10
2019-05-02T09:48:22.854Z,32.03
2019-05-02T09:50:48.301Z,32.23
2019-05-02T09:53:20.858Z,32.37
2019-05-02T09:55:50.306Z,32.70
2019-05-02T09:58:19.517Z,32.56
2019-05-02T10:00:42.003Z,32.63
2019-05-02T10:03:11.952Z,32.46
2019-05-02T10:05:38.786Z,32.35
2019-05-02T10:08:08.060Z,32.50
2019-05-02T10:10:37.240Z,32.55
2019-05-02T10:13:03.253Z,32.69
2019-05-02T10:15:32.541Z,32.99
2019-05-02T10:18:08.747Z,32.95
2019-05-02T10:20:34.021Z,32.85
2019-05-02T10:22:57.480Z,32.98
2019-05-02T10:25:24.423Z,32.94
2019-05-02T10:27:52.378Z,32.75
2019-05-02T10:30:19.365Z,32.71
2019-05-02T10:32:47.220Z,32.90
2019-05-02T10:35:15.192Z,33.19
2019-05-02T10:37:43.037Z,33.54
2019-05-02T10:40:13.466Z,33.93
2019-05-02T10:42:41.918Z,34.10
2019-05-02T10:45:13.044Z,34.21
2019-05-02T10:47:37.915Z,34.21
2019-05-02T10:50:04.947Z,34.05
2019-05-02T10:52:34.183Z,33.96
2019-05-02T10:55:02.515Z,33.93
2019-05-02T10:57:29.181Z,34.02
2019-05-02T10:59:56.334Z,33.76
2019-05-02T11:02:23.773Z,33.88
2019-05-02T11:04:52.441Z,34.07
2019-05-02T11:07:22.585Z,34.26
2019-05-02T11:09:49.241Z,34.28
2019-05-02T11:12:16.370Z,34.25
2019-05-02T11:14:45.030Z,34.17
2019-05-02T11:17:13.948Z,34.03
2019-05-02T11:19:41.982Z,34.09
2019-05-02T11:22:09.174Z,34.08
2019-05-02T11:24:36.156Z,33.44
2019-05-02T11:27:03.093Z,33.38
2019-05-02T11:29:32.247Z,33.53
2019-05-02T11:31:58.954Z,33.48
2019-05-02T11:34:25.909Z,33.62
2019-05-02T11:36:52.882Z,33.45
2019-05-02T11:39:27.054Z,33.15
2019-05-02T11:41:49.106Z,32.88
2019-05-02T11:44:16.041Z,32.96
2019-05-02T11:46:46.767Z,33.02
2019-05-02T11:49:12.256Z,32.78
2019-05-02T11:51:39.640Z,32.86
2019-05-02T11:54:09.335Z,32.71
2019-05-02T11:56:42.976Z,32.59
2019-05-02T11:59:06.116Z,32.42
2019-05-02T12:01:37.157Z,32.48
2019-05-02T12:04:02.986Z,32.31
2019-05-02T12:06:30.145Z,31.97
2019-05-02T12:08:57.478Z,31.80
2019-05-02T12:11:24.365Z,31.95
2019-05-02T12:13:52.674Z,31.83
2019-05-02T12:16:19.903Z,31.53
2019-05-02T12:18:47.098Z,31.71
2019-05-02T12:21:13.978Z,31.79
2019-05-02T12:23:41.873Z,31.85
2019-05-02T12:26:09.186Z,31.46
2019-05-02T12:28:36.540Z,31.10
2019-05-02T12:31:03.426Z,31.06
2019-05-02T12:33:31.753Z,30.86
2019-05-02T12:36:00.005Z,30.88
2019-05-02T12:38:27.184Z,30.69
2019-05-02T12:40:54.137Z,30.66
2019-05-02T12:43:22.888Z,30.80
2019-05-02T12:45:49.909Z,30.94
2019-05-02T12:48:16.812Z,30.40
2019-05-02T12:50:43.729Z,30.19
2019-05-02T12:53:12.665Z,30.15
2019-05-02T12:55:39.274Z,30.03
2019-05-02T12:58:06.173Z,29.80
2019-05-02T13:00:33.374Z,29.79
2019-05-02T13:03:02.004Z,29.85
2019-05-02T13:05:29.026Z,30.01
2019-05-02T13:07:55.955Z,30.01
2019-05-02T13:10:22.941Z,29.93
2019-05-02T13:12:49.887Z,29.51
2019-05-02T13:15:16.789Z,29.47
2019-05-02T13:17:48.733Z,29.44
2019-05-02T13:20:12.418Z,29.58
2019-05-02T13:22:39.492Z,29.46
2019-05-02T13:25:06.432Z,29.57
2019-05-02T13:27:43.482Z,29.81
2019-05-02T13:30:03.400Z,29.85
2019-05-02T13:32:32.156Z,29.60
2019-05-02T13:34:59.520Z,29.55
2019-05-02T13:37:26.665Z,29.48
2019-05-02T13:39:53.533Z,29.80
2019-05-02T13:42:21.946Z,29.49
2019-05-02T13:44:49.001Z,29.30
2019-05-02T13:47:18.969Z,29.53
2019-05-02T13:49:53.910Z,29.20
2019-05-02T13:52:14.548Z,29.05
2019-05-02T13:54:42.628Z,28.77
2019-05-02T13:57:09.757Z,28.69
2019-05-02T13:59:36.972Z,28.64
2019-05-02T14:02:03.961Z,28.63
2019-05-02T14:04:32.695Z,28.55
2019-05-02T14:06:59.505Z,28.79
2019-05-02T14:09:26.419Z,28.58
2019-05-02T14:11:53.336Z,28.47
2019-05-02T14:14:20.334Z,28.52
2019-05-02T14:16:47.318Z,28.69
2019-05-02T14:19:14.482Z,28.74
2019-05-02T14:21:42.129Z,28.69
2019-05-02T14:24:09.304Z,28.76
2019-05-02T14:26:36.279Z,28.90
2019-05-02T14:29:07.161Z,29.06
2019-05-02T14:31:32.334Z,29.20
2019-05-02T14:33:59.328Z,29.22
2019-05-02T14:36:26.311Z,28.93
2019-05-02T14:38:53.268Z,28.63
2019-05-02T14:41:21.786Z,28.64
2019-05-02T14:43:48.920Z,28.64
2019-05-02T14:46:17.933Z,28.58
2019-05-02T14:48:45.883Z,28.40
2019-05-02T14:51:16.551Z,28.08
2019-05-02T14:53:42.980Z,27.79
2019-05-02T14:56:12.492Z,27.86
2019-05-02T14:58:39.945Z,28.08
2019-05-02T15:01:06.854Z,28.19
2019-05-02T15:03:34.078Z,28.02
2019-05-02T15:06:04.072Z,28.11
2019-05-02T15:08:32.118Z,28.18
2019-05-02T15:10:58.776Z,28.31
2019-05-02T15:13:25.889Z,28.40
2019-05-02T15:15:53.062Z,28.60
2019-05-02T15:18:20.444Z,28.59
2019-05-02T15:20:47.397Z,28.37
2019-05-02T15:23:19.593Z,28.17
2019-05-02T15:25:47.076Z,28.16
2019-05-02T15:28:13.062Z,28.27
2019-05-02T15:30:44.924Z,28.39
2019-05-02T15:33:09.698Z,28.80
2019-05-02T15:35:36.642Z,29.21
2019-05-02T15:38:06.744Z,29.49
2019-05-02T15:43:02.817Z,30.10
2019-05-02T15:45:27.934Z,30.36
2019-05-02T15:47:54.852Z,30.69
2019-05-02T15:50:25.597Z,30.88
2019-05-02T15:52:52.517Z,30.93
2019-05-02T15:55:21.942Z,31.04
2019-05-02T15:57:49.985Z,31.10
2019-05-02T16:00:22.959Z,31.18
2019-05-02T16:02:45.550Z,31.24
2019-05-02T16:05:12.516Z,31.29
2019-05-02T16:07:44.951Z,31.45
2019-05-02T16:10:08.126Z,31.28
2019-05-02T16:12:36.212Z,31.29
2019-05-02T16:15:07.188Z,31.32
2019-05-02T16:17:33.424Z,31.29
2019-05-02T16:20:09.447Z,31.39
2019-05-02T16:22:30.567Z,31.63
2019-05-02T16:24:57.431Z,32.16
2019-05-02T16:27:27.692Z,32.18
2019-05-02T16:29:53.331Z,32.28
2019-05-02T16:32:22.022Z,32.41
2019-05-02T16:34:54.259Z,32.38
2019-05-02T16:37:18.876Z,32.39
2019-05-02T16:39:49.454Z,32.43
2019-05-02T16:42:14.429Z,32.44
2019-05-02T16:44:42.901Z,32.44
2019-05-02T16:47:10.142Z,32.43
2019-05-02T16:49:37.384Z,32.29
2019-05-02T16:52:08.313Z,32.18
2019-05-02T16:54:34.539Z,32.09
2019-05-02T16:57:03.214Z,31.73
2019-05-02T16:59:30.396Z,31.65
2019-05-02T17:01:59.525Z,31.50
2019-05-02T17:04:25.980Z,31.37
2019-05-02T17:06:56.939Z,31.38
2019-05-02T17:09:24.056Z,31.39
2019-05-02T17:11:52.303Z,31.52
2019-05-02T17:14:19.131Z,31.60
2019-05-02T17:16:47.019Z,31.66
2019-05-02T17:19:15.369Z,31.78
2019-05-02T17:21:53.003Z,31.97
2019-05-02T17:24:12.653Z,32.07
2019-05-02T17:26:40.164Z,32.23
2019-05-02T17:29:07.063Z,32.38
2019-05-02T17:31:34.089Z,32.39
2019-05-02T17:34:02.759Z,32.45
2019-05-02T17:36:30.603Z,32.55
2019-05-02T17:38:59.266Z,32.63
2019-05-02T17:41:26.989Z,32.77
2019-05-02T17:43:57.545Z,32.88
2019-05-02T17:46:25.881Z,32.90
2019-05-02T17:48:52.710Z,32.85
2019-05-02T17:51:20.008Z,32.84
2019-05-02T17:53:49.798Z,32.88
2019-05-02T17:56:20.481Z,33.00
2019-05-02T17:58:47.424Z,33.05
2019-05-02T18:01:12.770Z,33.23
2019-05-02T18:03:39.648Z,33.41
2019-05-02T18:06:07.467Z,33.54
2019-05-02T18:08:35.148Z,33.72
2019-05-02T18:11:02.962Z,33.92
2019-05-02T18:13:33.843Z,34.07
2019-05-02T18:15:58.951Z,34.24
2019-05-02T18:18:25.954Z,34.38
2019-05-02T18:20:53.252Z,34.49
2019-05-02T18:23:25.900Z,34.57
2019-05-02T18:25:48.763Z,34.76
2019-05-02T18:28:22.268Z,34.97
2019-05-02T18:30:44.615Z,35.22
2019-05-02T18:33:12.640Z,35.42
2019-05-02T18:35:45.251Z,35.61
2019-05-02T18:38:08.209Z,35.72
2019-05-02T18:40:35.145Z,35.74
2019-05-02T18:43:05.278Z,35.76
2019-05-02T18:45:31.872Z,35.83
2019-05-02T18:48:02.171Z,35.84
2019-05-02T18:50:27.594Z,35.93
2019-05-02T18:52:54.942Z,35.99
2019-05-02T18:55:23.057Z,35.95
2019-05-02T18:57:52.344Z,35.94
2019-05-02T19:00:22.865Z,35.92
2019-05-02T19:02:50.343Z,35.82
2019-05-02T19:05:19.216Z,35.73
2019-05-02T19:07:47.302Z,35.73
2019-05-02T19:10:14.549Z,35.72
2019-05-02T19:12:42.024Z,35.71
2019-05-02T19:15:09.470Z,35.70
2019-05-02T19:17:39.145Z,35.67
2019-05-02T19:20:06.255Z,35.66
2019-05-02T19:22:34.551Z,35.70
2019-05-02T19:25:03.731Z,35.77
2019-05-02T19:27:30.085Z,35.81
2019-05-02T19:29:57.366Z,35.88
2019-05-02T19:32:26.988Z,35.96
2019-05-02T19:34:53.237Z,35.99
2019-05-02T19:37:21.685Z,35.98
2019-05-02T19:39:48.969Z,36.01
2019-05-02T19:42:17.167Z,36.01
2019-05-02T19:44:44.942Z,36.04
2019-05-02T19:47:15.560Z,36.08
2019-05-02T19:49:42.379Z,36.10
2019-05-02T19:52:09.060Z,36.07
2019-05-02T19:54:39.567Z,36.10
2019-05-02T19:57:04.626Z,36.13
2019-05-02T19:59:32.159Z,36.09
2019-05-02T20:02:02.426Z,36.05
2019-05-02T20:04:28.204Z,36.06
2019-05-02T20:06:55.092Z,36.09
2019-05-02T20:09:22.408Z,36.05
2019-05-02T20:11:49.339Z,35.99
2019-05-02T20:14:16.678Z,35.95
2019-05-02T20:16:45.823Z,35.90
2019-05-02T20:19:12.457Z,35.84
2019-05-02T20:21:39.496Z,35.80
2019-05-02T20:24:09.156Z,35.76
2019-05-02T20:26:35.035Z,35.71
2019-05-02T20:29:02.111Z,35.60
2019-05-02T20:31:29.078Z,35.45
2019-05-02T20:33:56.302Z,35.24
2019-05-02T20:36:23.241Z,35.13
2019-05-02T20:38:50.181Z,35.01
2019-05-02T20:41:17.113Z,34.86
2019-05-02T20:43:44.956Z,34.73
2019-05-02T20:46:12.224Z,34.65
2019-05-02T20:48:39.195Z,34.59
2019-05-02T20:51:06.518Z,34.57
2019-05-02T20:53:34.208Z,34.42
2019-05-02T20:56:01.910Z,34.35
2019-05-02T20:58:29.041Z,34.34
2019-05-02T21:01:05.426Z,34.40
2019-05-02T21:03:24.553Z,34.44
2019-05-02T21:05:52.121Z,34.49
2019-05-02T21:08:19.112Z,34.50
2019-05-02T21:10:46.069Z,34.45
2019-05-02T21:13:13.081Z,34.41
2019-05-02T21:15:40.028Z,34.40
2019-05-02T21:18:07.249Z,34.44
2019-05-02T21:20:34.178Z,34.43
2019-05-02T21:23:01.972Z,34.41
2019-05-02T21:25:29.378Z,34.36
2019-05-02T21:27:56.242Z,34.30
2019-05-02T21:30:23.109Z,34.26
2019-05-02T21:32:51.996Z,34.26
2019-05-02T21:35:19.050Z,34.33
2019-05-02T21:37:46.313Z,34.41
2019-05-02T21:40:13.196Z,34.52
2019-05-02T21:42:40.139Z,34.55
2019-05-02T21:45:07.072Z,34.50
2019-05-02T21:47:34.005Z,34.45
2019-05-02T21:50:01.835Z,34.37
2019-05-02T21:52:28.880Z,34.27
2019-05-02T21:54:55.777Z,34.16
2019-05-02T21:57:22.746Z,34.11
2019-05-02T21:59:49.685Z,34.17
2019-05-02T22:02:16.564Z,34.19
2019-05-02T22:04:43.538Z,34.16
2019-05-02T22:07:12.198Z,34.23
2019-05-02T22:09:39.213Z,34.33
2019-05-02T22:12:06.136Z,34.34
2019-05-02T22:14:33.028Z,34.27
2019-05-02T22:17:02.159Z,34.22
2019-05-02T22:19:28.535Z,34.17
2019-05-02T22:21:55.398Z,34.06
2019-05-02T22:24:22.261Z,33.95
2019-05-02T22:26:49.196Z,33.85
2019-05-02T22:29:16.159Z,33.79
2019-05-02T22:31:43.216Z,33.69
2019-05-02T22:34:12.908Z,33.68
2019-05-02T22:36:40.032Z,33.63
2019-05-02T22:39:07.862Z,33.68
2019-05-02T22:41:35.416Z,33.70
2019-05-02T22:44:02.299Z,33.82
2019-05-02T22:46:29.257Z,33.91
2019-05-02T22:48:56.116Z,34.06
2019-05-02T22:51:22.989Z,34.15
2019-05-02T22:53:49.855Z,34.27
2019-05-02T22:56:17.016Z,34.35
2019-05-02T22:58:44.965Z,34.44
2019-05-02T23:01:11.913Z,34.48
2019-05-02T23:03:38.769Z,34.55
2019-05-02T23:06:05.672Z,34.69
2019-05-02T23:08:32.612Z,34.78
2019-05-02T23:10:59.585Z,34.91
2019-05-02T23:13:26.532Z,35.05
2019-05-02T23:15:53.409Z,35.25
2019-05-02T23:18:20.273Z,35.49
2019-05-02T23:20:47.200Z,35.68
2019-05-02T23:23:14.182Z,35.86
2019-05-02T23:25:42.540Z,36.18
2019-05-02T23:28:09.578Z,36.40
2019-05-02T23:30:36.522Z,36.70
2019-05-02T23:33:03.392Z,36.84
2019-05-02T23:35:31.981Z,36.92
2019-05-02T23:37:59.276Z,37.00
2019-05-02T23:40:26.189Z,37.15
2019-05-02T23:42:53.063Z,37.19
2019-05-02T23:45:19.932Z,37.20
2019-05-02T23:47:47.181Z,37.18
2019-05-02T23:50:14.450Z,37.24
2019-05-02T23:52:41.405Z,37.24
2019-05-02T23:55:08.260Z,37.28
2019-05-02T23:57:35.144Z,37.31
